sensor_id;sensor_type;location;lat;lon;timestamp;P1;durP1;ratioP1;P2;durP2;ratioP2
13269;SDS011;6703;51.994;7.570;2022-08-06T00:02:34;3.67;;;2.40;;
13269;SDS011;6703;51.994;7.570;2022-08-06T00:05:03;5.50;;;2.07;;
13269;SDS011;6703;51.994;7.570;2022-08-06T00:07:32;7.68;;;2.22;;
13269;SDS011;6703;51.994;7.570;2022-08-06T00:10:14;7.05;;;2.10;;
13269;SDS011;6703;51.994;7.570;2022-08-06T00:12:45;4.90;;;2.00;;
13269;SDS011;6703;51.994;7.570;2022-08-06T00:15:15;7.35;;;2.80;;
13269;SDS011;6703;51.994;7.570;2022-08-06T00:18:05;8.02;;;2.47;;
13269;SDS011;6703;51.994;7.570;2022-08-06T00:24:09;5.18;;;2.95;;
13269;SDS011;6703;51.994;7.570;2022-08-06T00:26:54;8.40;;;4.10;;
13269;SDS011;6703;51.994;7.570;2022-08-06T00:29:37;15.33;;;8.80;;
13269;SDS011;6703;51.994;7.570;2022-08-06T00:32:13;20.73;;;15.18;;
13269;SDS011;6703;51.994;7.570;2022-08-06T00:34:50;39.80;;;23.38;;
13269;SDS011;6703;51.994;7.570;2022-08-06T00:37:17;14.02;;;8.55;;
13269;SDS011;6703;51.994;7.570;2022-08-06T00:39:54;22.17;;;12.00;;
13269;SDS011;6703;51.994;7.570;2022-08-06T00:42:24;9.07;;;5.03;;
13269;SDS011;6703;51.994;7.570;2022-08-06T00:44:57;5.85;;;3.67;;
13269;SDS011;6703;51.994;7.570;2022-08-06T00:47:26;8.07;;;3.20;;
13269;SDS011;6703;51.994;7.570;2022-08-06T00:50:15;5.90;;;3.22;;
13269;SDS011;6703;51.994;7.570;2022-08-06T00:52:47;9.70;;;3.38;;
13269;SDS011;6703;51.994;7.570;2022-08-06T00:55:17;11.07;;;2.83;;
13269;SDS011;6703;51.994;7.570;2022-08-06T00:57:58;5.93;;;3.20;;
13269;SDS011;6703;51.994;7.570;2022-08-06T01:00:30;4.70;;;2.63;;
13269;SDS011;6703;51.994;7.570;2022-08-06T01:06:33;10.43;;;3.63;;
13269;SDS011;6703;51.994;7.570;2022-08-06T01:09:21;9.73;;;4.23;;
13269;SDS011;6703;51.994;7.570;2022-08-06T01:11:50;10.43;;;4.05;;
13269;SDS011;6703;51.994;7.570;2022-08-06T01:14:25;8.98;;;4.15;;
13269;SDS011;6703;51.994;7.570;2022-08-06T01:17:10;11.40;;;3.43;;
13269;SDS011;6703;51.994;7.570;2022-08-06T01:19:52;9.07;;;3.70;;
13269;SDS011;6703;51.994;7.570;2022-08-06T01:22:51;7.40;;;3.22;;
13269;SDS011;6703;51.994;7.570;2022-08-06T01:25:44;8.65;;;3.80;;
13269;SDS011;6703;51.994;7.570;2022-08-06T01:28:23;7.82;;;4.03;;
13269;SDS011;6703;51.994;7.570;2022-08-06T01:30:57;9.25;;;3.78;;
13269;SDS011;6703;51.994;7.570;2022-08-06T01:33:33;9.82;;;4.50;;
13269;SDS011;6703;51.994;7.570;2022-08-06T01:36:06;7.38;;;4.22;;
13269;SDS011;6703;51.994;7.570;2022-08-06T01:38:37;8.13;;;4.40;;
13269;SDS011;6703;51.994;7.570;2022-08-06T01:41:16;7.65;;;4.68;;
13269;SDS011;6703;51.994;7.570;2022-08-06T01:44:27;10.18;;;4.43;;
13269;SDS011;6703;51.994;7.570;2022-08-06T01:46:58;8.63;;;4.70;;
13269;SDS011;6703;51.994;7.570;2022-08-06T01:49:31;10.10;;;4.57;;
13269;SDS011;6703;51.994;7.570;2022-08-06T01:52:21;8.23;;;4.63;;
13269;SDS011;6703;51.994;7.570;2022-08-06T01:54:55;11.30;;;4.28;;
13269;SDS011;6703;51.994;7.570;2022-08-06T01:57:24;8.93;;;4.50;;
13269;SDS011;6703;51.994;7.570;2022-08-06T02:00:16;8.13;;;4.50;;
13269;SDS011;6703;51.994;7.570;2022-08-06T02:02:44;6.68;;;4.05;;
13269;SDS011;6703;51.994;7.570;2022-08-06T02:05:16;9.07;;;4.45;;
13269;SDS011;6703;51.994;7.570;2022-08-06T02:11:15;9.65;;;5.63;;
13269;SDS011;6703;51.994;7.570;2022-08-06T02:14:05;14.27;;;6.10;;
13269;SDS011;6703;51.994;7.570;2022-08-06T02:16:37;15.18;;;6.25;;
13269;SDS011;6703;51.994;7.570;2022-08-06T02:19:08;10.57;;;5.75;;
13269;SDS011;6703;51.994;7.570;2022-08-06T02:21:42;12.50;;;6.60;;
13269;SDS011;6703;51.994;7.570;2022-08-06T02:24:18;12.70;;;5.47;;
13269;SDS011;6703;51.994;7.570;2022-08-06T02:26:49;9.57;;;5.03;;
13269;SDS011;6703;51.994;7.570;2022-08-06T02:29:17;8.18;;;4.93;;
13269;SDS011;6703;51.994;7.570;2022-08-06T02:35:18;10.20;;;5.40;;
13269;SDS011;6703;51.994;7.570;2022-08-06T02:37:50;15.02;;;6.20;;
13269;SDS011;6703;51.994;7.570;2022-08-06T02:40:29;11.75;;;5.65;;
13269;SDS011;6703;51.994;7.570;2022-08-06T02:43:06;13.27;;;5.30;;
13269;SDS011;6703;51.994;7.570;2022-08-06T02:45:37;10.30;;;5.97;;
13269;SDS011;6703;51.994;7.570;2022-08-06T02:48:25;9.07;;;5.07;;
13269;SDS011;6703;51.994;7.570;2022-08-06T02:50:59;10.02;;;4.10;;
13269;SDS011;6703;51.994;7.570;2022-08-06T02:53:53;9.75;;;4.28;;
13269;SDS011;6703;51.994;7.570;2022-08-06T02:56:33;10.60;;;4.95;;
13269;SDS011;6703;51.994;7.570;2022-08-06T03:02:39;7.97;;;4.03;;
13269;SDS011;6703;51.994;7.570;2022-08-06T03:05:10;9.48;;;4.18;;
13269;SDS011;6703;51.994;7.570;2022-08-06T03:07:42;10.15;;;4.63;;
13269;SDS011;6703;51.994;7.570;2022-08-06T03:10:13;12.48;;;5.13;;
13269;SDS011;6703;51.994;7.570;2022-08-06T03:12:51;11.40;;;5.47;;
13269;SDS011;6703;51.994;7.570;2022-08-06T03:15:21;11.85;;;5.90;;
13269;SDS011;6703;51.994;7.570;2022-08-06T03:18:11;9.55;;;5.25;;
13269;SDS011;6703;51.994;7.570;2022-08-06T03:20:42;18.33;;;5.95;;
13269;SDS011;6703;51.994;7.570;2022-08-06T03:23:14;10.83;;;5.30;;
13269;SDS011;6703;51.994;7.570;2022-08-06T03:25:43;8.93;;;5.03;;
13269;SDS011;6703;51.994;7.570;2022-08-06T03:28:13;11.05;;;5.65;;
13269;SDS011;6703;51.994;7.570;2022-08-06T03:30:50;14.10;;;5.78;;
13269;SDS011;6703;51.994;7.570;2022-08-06T03:33:21;12.90;;;5.90;;
13269;SDS011;6703;51.994;7.570;2022-08-06T03:36:10;10.70;;;5.50;;
13269;SDS011;6703;51.994;7.570;2022-08-06T03:38:46;13.38;;;5.65;;
13269;SDS011;6703;51.994;7.570;2022-08-06T03:41:21;11.57;;;5.63;;
13269;SDS011;6703;51.994;7.570;2022-08-06T03:43:59;11.97;;;5.90;;
13269;SDS011;6703;51.994;7.570;2022-08-06T03:46:31;13.38;;;6.15;;
13269;SDS011;6703;51.994;7.570;2022-08-06T03:49:02;12.60;;;6.03;;
13269;SDS011;6703;51.994;7.570;2022-08-06T03:51:33;10.82;;;5.28;;
13269;SDS011;6703;51.994;7.570;2022-08-06T03:54:22;13.98;;;5.47;;
13269;SDS011;6703;51.994;7.570;2022-08-06T04:00:28;9.77;;;5.90;;
13269;SDS011;6703;51.994;7.570;2022-08-06T04:03:00;10.20;;;5.10;;
13269;SDS011;6703;51.994;7.570;2022-08-06T04:05:31;17.40;;;5.85;;
13269;SDS011;6703;51.994;7.570;2022-08-06T04:08:07;12.02;;;6.22;;
13269;SDS011;6703;51.994;7.570;2022-08-06T04:10:39;9.57;;;5.45;;
13269;SDS011;6703;51.994;7.570;2022-08-06T04:13:24;9.43;;;6.25;;
13269;SDS011;6703;51.994;7.570;2022-08-06T04:16:14;11.85;;;5.97;;
13269;SDS011;6703;51.994;7.570;2022-08-06T04:19:01;15.32;;;5.85;;
13269;SDS011;6703;51.994;7.570;2022-08-06T04:21:30;14.73;;;6.15;;
13269;SDS011;6703;51.994;7.570;2022-08-06T04:24:19;12.60;;;5.32;;
13269;SDS011;6703;51.994;7.570;2022-08-06T04:26:57;8.38;;;5.00;;
13269;SDS011;6703;51.994;7.570;2022-08-06T04:29:34;8.10;;;4.55;;
13269;SDS011;6703;51.994;7.570;2022-08-06T04:32:23;9.05;;;4.40;;
13269;SDS011;6703;51.994;7.570;2022-08-06T04:34:57;9.35;;;4.43;;
13269;SDS011;6703;51.994;7.570;2022-08-06T04:41:17;11.75;;;4.03;;
13269;SDS011;6703;51.994;7.570;2022-08-06T04:43:47;9.43;;;3.95;;
13269;SDS011;6703;51.994;7.570;2022-08-06T04:46:20;8.02;;;4.00;;
13269;SDS011;6703;51.994;7.570;2022-08-06T04:48:52;8.10;;;3.90;;
13269;SDS011;6703;51.994;7.570;2022-08-06T04:51:26;10.65;;;4.45;;
13269;SDS011;6703;51.994;7.570;2022-08-06T04:54:14;10.95;;;4.32;;
13269;SDS011;6703;51.994;7.570;2022-08-06T04:56:45;8.98;;;4.03;;
13269;SDS011;6703;51.994;7.570;2022-08-06T04:59:17;9.05;;;3.92;;
13269;SDS011;6703;51.994;7.570;2022-08-06T05:01:46;8.07;;;4.60;;
13269;SDS011;6703;51.994;7.570;2022-08-06T05:04:26;10.50;;;3.90;;
13269;SDS011;6703;51.994;7.570;2022-08-06T05:07:12;8.23;;;3.80;;
13269;SDS011;6703;51.994;7.570;2022-08-06T05:09:42;10.93;;;3.87;;
13269;SDS011;6703;51.994;7.570;2022-08-06T05:12:21;5.43;;;3.57;;
13269;SDS011;6703;51.994;7.570;2022-08-06T05:14:54;11.57;;;3.83;;
13269;SDS011;6703;51.994;7.570;2022-08-06T05:17:26;7.43;;;3.78;;
13269;SDS011;6703;51.994;7.570;2022-08-06T05:20:05;6.75;;;4.18;;
13269;SDS011;6703;51.994;7.570;2022-08-06T05:22:55;7.57;;;3.85;;
13269;SDS011;6703;51.994;7.570;2022-08-06T05:25:30;6.07;;;3.22;;
13269;SDS011;6703;51.994;7.570;2022-08-06T05:28:02;7.75;;;3.45;;
13269;SDS011;6703;51.994;7.570;2022-08-06T05:30:46;7.60;;;3.40;;
13269;SDS011;6703;51.994;7.570;2022-08-06T05:33:21;8.00;;;3.17;;
13269;SDS011;6703;51.994;7.570;2022-08-06T05:35:55;12.73;;;3.47;;
13269;SDS011;6703;51.994;7.570;2022-08-06T05:38:32;6.47;;;3.13;;
13269;SDS011;6703;51.994;7.570;2022-08-06T05:44:43;7.78;;;2.70;;
13269;SDS011;6703;51.994;7.570;2022-08-06T05:47:22;5.32;;;2.95;;
13269;SDS011;6703;51.994;7.570;2022-08-06T05:50:13;7.40;;;2.85;;
13269;SDS011;6703;51.994;7.570;2022-08-06T05:52:54;6.82;;;2.80;;
13269;SDS011;6703;51.994;7.570;2022-08-06T05:55:31;7.65;;;2.67;;
13269;SDS011;6703;51.994;7.570;2022-08-06T05:58:06;3.97;;;2.20;;
13269;SDS011;6703;51.994;7.570;2022-08-06T06:00:36;9.20;;;2.47;;
13269;SDS011;6703;51.994;7.570;2022-08-06T06:03:11;7.18;;;2.20;;
13269;SDS011;6703;51.994;7.570;2022-08-06T06:05:54;6.53;;;3.10;;
13269;SDS011;6703;51.994;7.570;2022-08-06T06:08:42;6.40;;;1.50;;
13269;SDS011;6703;51.994;7.570;2022-08-06T06:11:24;6.40;;;1.40;;
13269;SDS011;6703;51.994;7.570;2022-08-06T06:14:20;3.72;;;1.30;;
13269;SDS011;6703;51.994;7.570;2022-08-06T06:17:04;2.53;;;1.05;;
13269;SDS011;6703;51.994;7.570;2022-08-06T06:19:46;3.08;;;1.10;;
13269;SDS011;6703;51.994;7.570;2022-08-06T06:22:23;4.53;;;1.10;;
13269;SDS011;6703;51.994;7.570;2022-08-06T06:24:55;2.88;;;1.30;;
13269;SDS011;6703;51.994;7.570;2022-08-06T06:27:28;3.08;;;1.20;;
13269;SDS011;6703;51.994;7.570;2022-08-06T06:30:13;2.55;;;0.90;;
13269;SDS011;6703;51.994;7.570;2022-08-06T06:33:06;4.30;;;1.08;;
13269;SDS011;6703;51.994;7.570;2022-08-06T06:35:44;5.93;;;0.82;;
13269;SDS011;6703;51.994;7.570;2022-08-06T06:38:23;3.38;;;0.68;;
13269;SDS011;6703;51.994;7.570;2022-08-06T06:40:57;3.92;;;0.98;;
13269;SDS011;6703;51.994;7.570;2022-08-06T06:43:47;3.35;;;0.82;;
13269;SDS011;6703;51.994;7.570;2022-08-06T06:46:22;3.95;;;0.60;;
13269;SDS011;6703;51.994;7.570;2022-08-06T06:49:07;2.92;;;0.70;;
13269;SDS011;6703;51.994;7.570;2022-08-06T06:52:02;2.42;;;0.60;;
13269;SDS011;6703;51.994;7.570;2022-08-06T06:54:35;8.80;;;1.10;;
13269;SDS011;6703;51.994;7.570;2022-08-06T06:57:06;1.85;;;0.57;;
13269;SDS011;6703;51.994;7.570;2022-08-06T06:59:42;0.70;;;0.40;;
13269;SDS011;6703;51.994;7.570;2022-08-06T07:02:32;1.15;;;0.50;;
13269;SDS011;6703;51.994;7.570;2022-08-06T07:05:02;3.90;;;0.50;;
13269;SDS011;6703;51.994;7.570;2022-08-06T07:07:34;4.40;;;1.20;;
13269;SDS011;6703;51.994;7.570;2022-08-06T07:10:12;1.15;;;0.40;;
13269;SDS011;6703;51.994;7.570;2022-08-06T07:12:41;1.40;;;0.35;;
13269;SDS011;6703;51.994;7.570;2022-08-06T07:15:16;1.93;;;0.43;;
13269;SDS011;6703;51.994;7.570;2022-08-06T07:17:49;1.02;;;0.50;;
13269;SDS011;6703;51.994;7.570;2022-08-06T07:20:20;2.00;;;0.40;;
13269;SDS011;6703;51.994;7.570;2022-08-06T07:22:56;2.45;;;0.55;;
13269;SDS011;6703;51.994;7.570;2022-08-06T07:25:48;2.13;;;0.50;;
13269;SDS011;6703;51.994;7.570;2022-08-06T07:28:20;2.17;;;0.45;;
13269;SDS011;6703;51.994;7.570;2022-08-06T07:30:55;1.42;;;0.40;;
13269;SDS011;6703;51.994;7.570;2022-08-06T07:33:32;3.15;;;0.50;;
13269;SDS011;6703;51.994;7.570;2022-08-06T07:36:22;3.92;;;0.50;;
13269;SDS011;6703;51.994;7.570;2022-08-06T07:38:55;2.20;;;0.50;;
13269;SDS011;6703;51.994;7.570;2022-08-06T07:41:26;2.25;;;0.65;;
13269;SDS011;6703;51.994;7.570;2022-08-06T07:44:15;1.70;;;0.30;;
13269;SDS011;6703;51.994;7.570;2022-08-06T07:46:55;1.45;;;0.43;;
13269;SDS011;6703;51.994;7.570;2022-08-06T07:49:26;2.30;;;0.40;;
13269;SDS011;6703;51.994;7.570;2022-08-06T07:56:08;1.75;;;0.30;;
13269;SDS011;6703;51.994;7.570;2022-08-06T07:58:38;1.40;;;0.30;;
13269;SDS011;6703;51.994;7.570;2022-08-06T08:01:12;2.35;;;0.30;;
13269;SDS011;6703;51.994;7.570;2022-08-06T08:03:44;1.83;;;0.30;;
13269;SDS011;6703;51.994;7.570;2022-08-06T08:06:53;0.60;;;0.25;;
13269;SDS011;6703;51.994;7.570;2022-08-06T08:09:23;2.33;;;0.32;;
13269;SDS011;6703;51.994;7.570;2022-08-06T08:12:13;1.13;;;0.33;;
13269;SDS011;6703;51.994;7.570;2022-08-06T08:15:01;1.10;;;0.32;;
13269;SDS011;6703;51.994;7.570;2022-08-06T08:17:32;1.25;;;0.30;;
13269;SDS011;6703;51.994;7.570;2022-08-06T08:20:02;1.70;;;0.37;;
13269;SDS011;6703;51.994;7.570;2022-08-06T08:22:41;1.40;;;0.20;;
13269;SDS011;6703;51.994;7.570;2022-08-06T08:25:16;1.20;;;0.28;;
13269;SDS011;6703;51.994;7.570;2022-08-06T08:28:06;2.90;;;0.40;;
13269;SDS011;6703;51.994;7.570;2022-08-06T08:30:38;1.80;;;0.30;;
13269;SDS011;6703;51.994;7.570;2022-08-06T08:33:07;3.25;;;0.30;;
13269;SDS011;6703;51.994;7.570;2022-08-06T08:35:45;1.50;;;0.22;;
13269;SDS011;6703;51.994;7.570;2022-08-06T08:38:28;2.25;;;0.40;;
13269;SDS011;6703;51.994;7.570;2022-08-06T08:40:59;1.55;;;0.20;;
13269;SDS011;6703;51.994;7.570;2022-08-06T08:43:33;1.15;;;0.28;;
13269;SDS011;6703;51.994;7.570;2022-08-06T08:46:22;1.85;;;0.28;;
13269;SDS011;6703;51.994;7.570;2022-08-06T08:48:57;0.77;;;0.22;;
13269;SDS011;6703;51.994;7.570;2022-08-06T08:51:26;1.10;;;0.30;;
13269;SDS011;6703;51.994;7.570;2022-08-06T08:53:55;1.90;;;0.40;;
13269;SDS011;6703;51.994;7.570;2022-08-06T08:56:26;1.92;;;0.30;;
13269;SDS011;6703;51.994;7.570;2022-08-06T08:59:19;0.90;;;0.30;;
13269;SDS011;6703;51.994;7.570;2022-08-06T09:02:07;2.75;;;0.30;;
13269;SDS011;6703;51.994;7.570;2022-08-06T09:04:40;2.75;;;0.20;;
13269;SDS011;6703;51.994;7.570;2022-08-06T09:07:10;0.57;;;0.10;;
13269;SDS011;6703;51.994;7.570;2022-08-06T09:09:51;0.90;;;0.20;;
13269;SDS011;6703;51.994;7.570;2022-08-06T09:12:26;2.20;;;0.22;;
13269;SDS011;6703;51.994;7.570;2022-08-06T09:15:01;1.25;;;0.20;;
13269;SDS011;6703;51.994;7.570;2022-08-06T09:17:29;2.13;;;0.30;;
13269;SDS011;6703;51.994;7.570;2022-08-06T09:20:17;1.20;;;0.10;;
13269;SDS011;6703;51.994;7.570;2022-08-06T09:22:46;1.07;;;0.20;;
13269;SDS011;6703;51.994;7.570;2022-08-06T09:28:27;1.73;;;0.32;;
13269;SDS011;6703;51.994;7.570;2022-08-06T09:31:06;2.03;;;0.40;;
13269;SDS011;6703;51.994;7.570;2022-08-06T09:33:56;2.75;;;0.30;;
13269;SDS011;6703;51.994;7.570;2022-08-06T09:36:46;2.15;;;0.30;;
13269;SDS011;6703;51.994;7.570;2022-08-06T09:39:29;0.45;;;0.20;;
13269;SDS011;6703;51.994;7.570;2022-08-06T09:45:08;1.70;;;0.30;;
13269;SDS011;6703;51.994;7.570;2022-08-06T09:47:46;2.72;;;0.28;;
13269;SDS011;6703;51.994;7.570;2022-08-06T09:50:40;1.63;;;0.30;;
13269;SDS011;6703;51.994;7.570;2022-08-06T09:53:09;2.30;;;0.30;;
13269;SDS011;6703;51.994;7.570;2022-08-06T09:55:41;0.80;;;0.10;;
13269;SDS011;6703;51.994;7.570;2022-08-06T09:58:10;1.30;;;0.40;;
13269;SDS011;6703;51.994;7.570;2022-08-06T10:00:39;1.83;;;0.20;;
13269;SDS011;6703;51.994;7.570;2022-08-06T10:03:13;4.10;;;0.70;;
13269;SDS011;6703;51.994;7.570;2022-08-06T10:06:04;2.03;;;0.40;;
13269;SDS011;6703;51.994;7.570;2022-08-06T10:08:40;3.15;;;0.30;;
13269;SDS011;6703;51.994;7.570;2022-08-06T10:11:09;3.13;;;0.40;;
13269;SDS011;6703;51.994;7.570;2022-08-06T10:13:37;1.00;;;0.22;;
13269;SDS011;6703;51.994;7.570;2022-08-06T10:16:16;1.90;;;0.35;;
13269;SDS011;6703;51.994;7.570;2022-08-06T10:18:49;2.20;;;0.28;;
13269;SDS011;6703;51.994;7.570;2022-08-06T10:25:06;2.10;;;0.30;;
13269;SDS011;6703;51.994;7.570;2022-08-06T10:27:38;1.30;;;0.30;;
13269;SDS011;6703;51.994;7.570;2022-08-06T10:30:08;1.20;;;0.23;;
13269;SDS011;6703;51.994;7.570;2022-08-06T10:32:39;0.60;;;0.20;;
13269;SDS011;6703;51.994;7.570;2022-08-06T10:35:17;0.90;;;0.20;;
13269;SDS011;6703;51.994;7.570;2022-08-06T10:37:51;3.90;;;0.30;;
13269;SDS011;6703;51.994;7.570;2022-08-06T10:40:23;0.85;;;0.20;;
13269;SDS011;6703;51.994;7.570;2022-08-06T10:42:57;1.50;;;0.27;;
13269;SDS011;6703;51.994;7.570;2022-08-06T10:45:26;0.85;;;0.25;;
13269;SDS011;6703;51.994;7.570;2022-08-06T10:48:15;2.00;;;0.30;;
13269;SDS011;6703;51.994;7.570;2022-08-06T10:54:46;1.67;;;0.30;;
13269;SDS011;6703;51.994;7.570;2022-08-06T10:57:18;1.00;;;0.30;;
13269;SDS011;6703;51.994;7.570;2022-08-06T11:00:02;1.83;;;0.25;;
13269;SDS011;6703;51.994;7.570;2022-08-06T11:02:32;2.10;;;0.20;;
13269;SDS011;6703;51.994;7.570;2022-08-06T11:05:16;0.93;;;0.17;;
13269;SDS011;6703;51.994;7.570;2022-08-06T11:08:00;1.27;;;0.30;;
13269;SDS011;6703;51.994;7.570;2022-08-06T11:10:50;1.48;;;0.20;;
13269;SDS011;6703;51.994;7.570;2022-08-06T11:13:32;0.80;;;0.30;;
13269;SDS011;6703;51.994;7.570;2022-08-06T11:16:22;1.55;;;0.20;;
13269;SDS011;6703;51.994;7.570;2022-08-06T11:18:57;0.50;;;0.20;;
13269;SDS011;6703;51.994;7.570;2022-08-06T11:21:38;0.80;;;0.30;;
13269;SDS011;6703;51.994;7.570;2022-08-06T11:28:00;1.27;;;0.30;;
13269;SDS011;6703;51.994;7.570;2022-08-06T11:30:39;2.58;;;0.38;;
13269;SDS011;6703;51.994;7.570;2022-08-06T11:33:13;0.77;;;0.17;;
13269;SDS011;6703;51.994;7.570;2022-08-06T11:39:24;1.20;;;0.33;;
13269;SDS011;6703;51.994;7.570;2022-08-06T11:42:13;2.70;;;0.40;;
13269;SDS011;6703;51.994;7.570;2022-08-06T11:45:16;2.00;;;0.20;;
13269;SDS011;6703;51.994;7.570;2022-08-06T11:48:05;2.03;;;0.30;;
13269;SDS011;6703;51.994;7.570;2022-08-06T11:50:54;0.85;;;0.30;;
13269;SDS011;6703;51.994;7.570;2022-08-06T11:53:36;0.90;;;0.32;;
13269;SDS011;6703;51.994;7.570;2022-08-06T11:56:20;0.40;;;0.20;;
13269;SDS011;6703;51.994;7.570;2022-08-06T12:01:44;9.07;;;3.97;;
13269;SDS011;6703;51.994;7.570;2022-08-06T12:07:16;2.70;;;0.50;;
13269;SDS011;6703;51.994;7.570;2022-08-06T12:09:57;4.05;;;1.40;;
13269;SDS011;6703;51.994;7.570;2022-08-06T12:12:34;1.52;;;0.30;;
13269;SDS011;6703;51.994;7.570;2022-08-06T12:18:28;2.00;;;0.20;;
13269;SDS011;6703;51.994;7.570;2022-08-06T12:20:58;1.42;;;0.30;;
13269;SDS011;6703;51.994;7.570;2022-08-06T12:23:27;1.35;;;0.40;;
13269;SDS011;6703;51.994;7.570;2022-08-06T12:26:16;1.92;;;0.28;;
13269;SDS011;6703;51.994;7.570;2022-08-06T12:29:03;2.75;;;0.88;;
13269;SDS011;6703;51.994;7.570;2022-08-06T12:31:37;2.03;;;0.40;;
13269;SDS011;6703;51.994;7.570;2022-08-06T12:34:25;2.45;;;0.30;;
13269;SDS011;6703;51.994;7.570;2022-08-06T12:36:57;3.17;;;0.80;;
13269;SDS011;6703;51.994;7.570;2022-08-06T12:39:25;2.17;;;0.32;;
13269;SDS011;6703;51.994;7.570;2022-08-06T12:42:21;2.10;;;0.30;;
13269;SDS011;6703;51.994;7.570;2022-08-06T12:45:10;1.60;;;0.47;;
13269;SDS011;6703;51.994;7.570;2022-08-06T12:48:03;1.10;;;0.40;;
13269;SDS011;6703;51.994;7.570;2022-08-06T12:50:37;31.42;;;11.48;;
13269;SDS011;6703;51.994;7.570;2022-08-06T12:53:06;5.53;;;0.77;;
13269;SDS011;6703;51.994;7.570;2022-08-06T12:55:41;1.65;;;0.30;;
13269;SDS011;6703;51.994;7.570;2022-08-06T12:58:12;7.63;;;1.70;;
13269;SDS011;6703;51.994;7.570;2022-08-06T13:01:03;24.70;;;8.68;;
13269;SDS011;6703;51.994;7.570;2022-08-06T13:07:04;1.40;;;0.30;;
13269;SDS011;6703;51.994;7.570;2022-08-06T13:09:39;1.50;;;0.30;;
13269;SDS011;6703;51.994;7.570;2022-08-06T13:12:28;2.10;;;0.40;;
13269;SDS011;6703;51.994;7.570;2022-08-06T13:15:16;1.92;;;0.22;;
13269;SDS011;6703;51.994;7.570;2022-08-06T13:18:02;1.98;;;0.30;;
13269;SDS011;6703;51.994;7.570;2022-08-06T13:20:52;2.35;;;0.40;;
13269;SDS011;6703;51.994;7.570;2022-08-06T13:23:32;1.25;;;0.30;;
13269;SDS011;6703;51.994;7.570;2022-08-06T13:26:12;2.25;;;0.30;;
13269;SDS011;6703;51.994;7.570;2022-08-06T13:29:05;0.75;;;0.20;;
13269;SDS011;6703;51.994;7.570;2022-08-06T13:32:01;0.47;;;0.30;;
13269;SDS011;6703;51.994;7.570;2022-08-06T13:34:52;1.40;;;0.30;;
13269;SDS011;6703;51.994;7.570;2022-08-06T13:40:35;1.00;;;0.10;;
13269;SDS011;6703;51.994;7.570;2022-08-06T13:43:12;1.08;;;0.30;;
13269;SDS011;6703;51.994;7.570;2022-08-06T13:46:07;0.93;;;0.20;;
13269;SDS011;6703;51.994;7.570;2022-08-06T13:48:41;1.10;;;0.27;;
13269;SDS011;6703;51.994;7.570;2022-08-06T13:51:12;1.15;;;0.20;;
13269;SDS011;6703;51.994;7.570;2022-08-06T13:53:52;1.70;;;0.17;;
13269;SDS011;6703;51.994;7.570;2022-08-06T13:56:27;0.90;;;0.20;;
13269;SDS011;6703;51.994;7.570;2022-08-06T13:58:59;1.17;;;0.20;;
13269;SDS011;6703;51.994;7.570;2022-08-06T14:01:30;2.13;;;0.30;;
13269;SDS011;6703;51.994;7.570;2022-08-06T14:04:12;1.33;;;0.20;;
13269;SDS011;6703;51.994;7.570;2022-08-06T14:06:45;1.98;;;0.30;;
13269;SDS011;6703;51.994;7.570;2022-08-06T14:09:15;1.00;;;0.38;;
13269;SDS011;6703;51.994;7.570;2022-08-06T14:11:50;1.08;;;0.17;;
13269;SDS011;6703;51.994;7.570;2022-08-06T14:14:21;0.52;;;0.17;;
13269;SDS011;6703;51.994;7.570;2022-08-06T14:16:51;1.00;;;0.40;;
13269;SDS011;6703;51.994;7.570;2022-08-06T14:22:55;2.00;;;0.28;;
13269;SDS011;6703;51.994;7.570;2022-08-06T14:25:26;0.50;;;0.20;;
13269;SDS011;6703;51.994;7.570;2022-08-06T14:28:15;0.98;;;0.30;;
13269;SDS011;6703;51.994;7.570;2022-08-06T14:30:46;0.73;;;0.28;;
13269;SDS011;6703;51.994;7.570;2022-08-06T14:33:18;3.50;;;0.33;;
13269;SDS011;6703;51.994;7.570;2022-08-06T14:36:02;2.30;;;0.30;;
13269;SDS011;6703;51.994;7.570;2022-08-06T14:38:30;0.82;;;0.35;;
13269;SDS011;6703;51.994;7.570;2022-08-06T14:41:01;1.50;;;0.30;;
13269;SDS011;6703;51.994;7.570;2022-08-06T14:44:10;0.75;;;0.30;;
13269;SDS011;6703;51.994;7.570;2022-08-06T14:46:56;0.88;;;0.20;;
13269;SDS011;6703;51.994;7.570;2022-08-06T14:49:25;0.40;;;0.20;;
13269;SDS011;6703;51.994;7.570;2022-08-06T14:52:14;1.00;;;0.30;;
13269;SDS011;6703;51.994;7.570;2022-08-06T14:54:47;1.35;;;0.30;;
13269;SDS011;6703;51.994;7.570;2022-08-06T14:57:32;1.70;;;0.40;;
13269;SDS011;6703;51.994;7.570;2022-08-06T15:00:23;2.75;;;0.22;;
13269;SDS011;6703;51.994;7.570;2022-08-06T15:03:02;2.00;;;0.38;;
13269;SDS011;6703;51.994;7.570;2022-08-06T15:05:34;1.20;;;0.30;;
13269;SDS011;6703;51.994;7.570;2022-08-06T15:08:23;0.80;;;0.28;;
13269;SDS011;6703;51.994;7.570;2022-08-06T15:10:53;1.58;;;0.20;;
13269;SDS011;6703;51.994;7.570;2022-08-06T15:13:21;1.50;;;0.23;;
13269;SDS011;6703;51.994;7.570;2022-08-06T15:16:03;1.30;;;0.28;;
13269;SDS011;6703;51.994;7.570;2022-08-06T15:18:51;1.02;;;0.20;;
13269;SDS011;6703;51.994;7.570;2022-08-06T15:21:40;1.00;;;0.40;;
13269;SDS011;6703;51.994;7.570;2022-08-06T15:24:22;0.52;;;0.30;;
13269;SDS011;6703;51.994;7.570;2022-08-06T15:26:50;0.60;;;0.25;;
13269;SDS011;6703;51.994;7.570;2022-08-06T15:29:21;0.52;;;0.20;;
13269;SDS011;6703;51.994;7.570;2022-08-06T15:31:50;1.02;;;0.40;;
13269;SDS011;6703;51.994;7.570;2022-08-06T15:34:24;1.30;;;0.40;;
13269;SDS011;6703;51.994;7.570;2022-08-06T15:36:54;1.47;;;0.40;;
13269;SDS011;6703;51.994;7.570;2022-08-06T15:39:28;3.00;;;0.30;;
13269;SDS011;6703;51.994;7.570;2022-08-06T15:42:18;1.88;;;0.30;;
13269;SDS011;6703;51.994;7.570;2022-08-06T15:44:47;0.60;;;0.30;;
13269;SDS011;6703;51.994;7.570;2022-08-06T15:47:18;4.13;;;0.30;;
13269;SDS011;6703;51.994;7.570;2022-08-06T15:49:58;2.20;;;0.40;;
13269;SDS011;6703;51.994;7.570;2022-08-06T15:52:32;3.33;;;0.95;;
13269;SDS011;6703;51.994;7.570;2022-08-06T15:55:08;1.73;;;0.50;;
13269;SDS011;6703;51.994;7.570;2022-08-06T15:57:42;1.90;;;0.63;;
13269;SDS011;6703;51.994;7.570;2022-08-06T16:00:31;0.95;;;0.25;;
13269;SDS011;6703;51.994;7.570;2022-08-06T16:03:03;2.50;;;0.80;;
13269;SDS011;6703;51.994;7.570;2022-08-06T16:05:35;2.53;;;0.30;;
13269;SDS011;6703;51.994;7.570;2022-08-06T16:08:25;0.90;;;0.40;;
13269;SDS011;6703;51.994;7.570;2022-08-06T16:11:06;1.30;;;0.40;;
13269;SDS011;6703;51.994;7.570;2022-08-06T16:13:37;4.18;;;0.60;;
13269;SDS011;6703;51.994;7.570;2022-08-06T16:16:19;1.65;;;0.40;;
13269;SDS011;6703;51.994;7.570;2022-08-06T16:19:00;1.50;;;0.50;;
13269;SDS011;6703;51.994;7.570;2022-08-06T16:21:29;2.03;;;0.57;;
13269;SDS011;6703;51.994;7.570;2022-08-06T16:23:59;2.00;;;0.40;;
13269;SDS011;6703;51.994;7.570;2022-08-06T16:26:29;1.33;;;0.40;;
13269;SDS011;6703;51.994;7.570;2022-08-06T16:29:15;2.88;;;0.60;;
13269;SDS011;6703;51.994;7.570;2022-08-06T16:31:45;1.67;;;0.55;;
13269;SDS011;6703;51.994;7.570;2022-08-06T16:34:21;1.40;;;0.35;;
13269;SDS011;6703;51.994;7.570;2022-08-06T16:36:56;1.17;;;0.40;;
13269;SDS011;6703;51.994;7.570;2022-08-06T16:39:26;1.35;;;0.50;;
13269;SDS011;6703;51.994;7.570;2022-08-06T16:42:14;3.38;;;0.40;;
13269;SDS011;6703;51.994;7.570;2022-08-06T16:44:43;1.20;;;0.27;;
13269;SDS011;6703;51.994;7.570;2022-08-06T16:47:26;1.58;;;0.60;;
13269;SDS011;6703;51.994;7.570;2022-08-06T16:50:16;3.53;;;0.38;;
13269;SDS011;6703;51.994;7.570;2022-08-06T16:52:53;1.90;;;0.30;;
13269;SDS011;6703;51.994;7.570;2022-08-06T16:55:41;1.85;;;0.55;;
13269;SDS011;6703;51.994;7.570;2022-08-06T16:58:10;1.55;;;0.40;;
13269;SDS011;6703;51.994;7.570;2022-08-06T17:00:59;1.77;;;0.50;;
13269;SDS011;6703;51.994;7.570;2022-08-06T17:03:47;0.95;;;0.47;;
13269;SDS011;6703;51.994;7.570;2022-08-06T17:06:17;3.05;;;0.40;;
13269;SDS011;6703;51.994;7.570;2022-08-06T17:08:52;0.95;;;0.30;;
13269;SDS011;6703;51.994;7.570;2022-08-06T17:14:52;2.60;;;0.50;;
13269;SDS011;6703;51.994;7.570;2022-08-06T17:17:21;1.40;;;0.60;;
13269;SDS011;6703;51.994;7.570;2022-08-06T17:20:04;2.88;;;0.57;;
13269;SDS011;6703;51.994;7.570;2022-08-06T17:22:37;1.35;;;0.50;;